Time;durP1;ratioP1;P1;durP2;ratioP2;P2;SDS_P1;SDS_P2;PMS_P1;PMS_P2;Temp;Humidity;BMP_temperature;BMP_pressure;BME280_temperature;BME280_humidity;BME280_pressure;Samples;Min_cycle;Max_cycle;Signal;HPM_P1;HPM_P2
2024/01/19 00:00:03;;;;;;;13.93;13.33;;;1.50;99.90;;;;;;5070819;28;20200;-63
2024/01/19 00:02:30;;;;;;;14.07;13.47;;;1.60;99.90;;;;;;5071139;28;20215;-61
2024/01/19 00:04:56;;;;;;;14.17;13.57;;;1.60;99.90;;;;;;5070432;28;20728;-62
2024/01/19 00:07:24;;;;;;;13.30;12.77;;;1.60;99.90;;;;;;5071872;28;20217;-61
2024/01/19 00:09:51;;;;;;;14.13;13.53;;;1.60;99.90;;;;;;5072277;28;20206;-62
2024/01/19 00:12:18;;;;;;;13.43;12.87;;;1.70;99.90;;;;;;5071134;28;20224;-61
2024/01/19 00:14:45;;;;;;;14.37;13.67;;;1.70;99.90;;;;;;5081562;28;20297;-63
2024/01/19 00:17:11;;;;;;;13.13;12.63;;;1.70;99.90;;;;;;5071661;28;20256;-61
2024/01/19 00:19:38;;;;;;;13.50;13.00;;;1.80;99.90;;;;;;5070062;28;20579;-62
2024/01/19 00:22:05;;;;;;;13.53;12.93;;;1.90;99.90;;;;;;5071205;28;20208;-61
2024/01/19 00:24:33;;;;;;;13.53;12.93;;;1.90;99.90;;;;;;5068913;28;20717;-62
2024/01/19 00:27:00;;;;;;;14.57;13.97;;;1.90;99.90;;;;;;5082081;28;20216;-62
2024/01/19 00:29:27;;;;;;;14.20;13.60;;;1.90;99.90;;;;;;5070392;28;20199;-62
2024/01/19 00:31:55;;;;;;;13.40;12.87;;;2.00;99.90;;;;;;5070311;28;20227;-62
2024/01/19 00:34:22;;;;;;;13.17;12.57;;;2.00;99.90;;;;;;5069739;28;20570;-61
2024/01/19 00:36:49;;;;;;;13.00;12.50;;;2.00;99.90;;;;;;5067265;28;20203;-62
2024/01/19 00:39:15;;;;;;;13.67;13.07;;;2.00;99.90;;;;;;5068811;28;20207;-63
2024/01/19 00:41:43;;;;;;;13.60;13.00;;;2.00;99.90;;;;;;5069830;28;20198;-61
2024/01/19 00:44:10;;;;;;;13.23;12.73;;;2.10;99.90;;;;;;5071470;28;20235;-61
2024/01/19 00:46:37;;;;;;;13.27;12.77;;;2.10;99.90;;;;;;5067326;28;20211;-63
2024/01/19 00:49:04;;;;;;;13.07;12.57;;;2.20;99.90;;;;;;5068698;28;20207;-63
2024/01/19 00:51:30;;;;;;;13.10;12.60;;;2.20;99.90;;;;;;5069561;28;20203;-63
2024/01/19 00:53:57;;;;;;;12.93;12.43;;;2.20;99.90;;;;;;5068927;28;20239;-63
2024/01/19 00:56:24;;;;;;;13.33;12.73;;;2.20;99.90;;;;;;5068877;28;20208;-63
2024/01/19 00:58:52;;;;;;;12.50;12.00;;;2.20;99.90;;;;;;5063286;28;20681;-61
2024/01/19 01:01:18;;;;;;;13.73;13.13;;;2.20;99.90;;;;;;5074498;28;20206;-63
2024/01/19 01:03:46;;;;;;;13.17;12.57;;;2.20;99.90;;;;;;5064805;28;20300;-62
2024/01/19 01:06:13;;;;;;;13.17;12.67;;;2.20;99.90;;;;;;5069254;28;20298;-63
2024/01/19 01:08:40;;;;;;;13.40;12.80;;;2.20;99.90;;;;;;5072839;28;20200;-63
2024/01/19 01:11:07;;;;;;;13.23;12.63;;;2.20;99.90;;;;;;5073946;28;20214;-62
2024/01/19 01:13:34;;;;;;;13.10;12.60;;;2.20;99.90;;;;;;5067268;28;20318;-64
2024/01/19 01:16:03;;;;;;;13.80;13.10;;;2.20;99.90;;;;;;5067308;28;20674;-62
2024/01/19 01:18:30;;;;;;;13.27;12.77;;;2.20;99.90;;;;;;5068625;28;20705;-62
2024/01/19 01:20:57;;;;;;;13.27;12.70;;;2.20;99.90;;;;;;5070015;28;20222;-63
2024/01/19 01:23:24;;;;;;;12.73;12.23;;;2.20;99.90;;;;;;5072792;28;20338;-62
2024/01/19 01:25:51;;;;;;;12.87;12.37;;;2.20;99.90;;;;;;5082252;28;20251;-63
2024/01/19 01:28:18;;;;;;;15.03;14.23;;;2.20;99.90;;;;;;5081296;28;20215;-62
2024/01/19 01:30:44;;;;;;;12.97;12.47;;;2.20;99.90;;;;;;5087660;28;20214;-63
2024/01/19 01:33:12;;;;;;;12.77;12.27;;;2.30;99.90;;;;;;5085507;28;20294;-63
2024/01/19 01:35:39;;;;;;;12.90;12.40;;;2.30;99.90;;;;;;5080380;28;20231;-63
2024/01/19 01:38:06;;;;;;;13.17;12.67;;;2.30;99.90;;;;;;5090933;28;20218;-62
2024/01/19 01:40:33;;;;;;;13.13;12.63;;;2.30;99.90;;;;;;5086402;28;20207;-61
2024/01/19 01:43:02;;;;;;;12.50;12.00;;;2.20;99.90;;;;;;5088408;28;20213;-62
2024/01/19 01:45:29;;;;;;;13.47;12.87;;;2.30;99.90;;;;;;5092102;28;20223;-63
2024/01/19 01:47:56;;;;;;;14.00;13.40;;;2.20;99.90;;;;;;5074546;28;20208;-61
2024/01/19 01:50:25;;;;;;;13.47;12.87;;;2.20;99.90;;;;;;5072425;28;20206;-62
2024/01/19 01:52:53;;;;;;;13.77;13.17;;;2.20;99.90;;;;;;5074247;28;20226;-61
2024/01/19 01:55:19;;;;;;;12.53;12.03;;;2.20;99.90;;;;;;5077261;28;20234;-62
2024/01/19 01:57:47;;;;;;;13.13;12.63;;;2.20;99.90;;;;;;5077786;28;20225;-63
2024/01/19 02:00:17;;;;;;;13.83;13.23;;;2.20;99.90;;;;;;5073411;28;20211;-62
2024/01/19 02:02:45;;;;;;;13.77;13.17;;;2.20;99.90;;;;;;5070992;28;20210;-61
2024/01/19 02:05:11;;;;;;;13.80;13.20;;;2.20;99.90;;;;;;5073252;28;20361;-63
2024/01/19 02:07:39;;;;;;;13.10;12.60;;;2.20;99.90;;;;;;5073607;28;20208;-62
2024/01/19 02:10:07;;;;;;;13.03;12.53;;;2.10;99.90;;;;;;5063740;28;20620;-63
2024/01/19 02:12:34;;;;;;;12.37;11.87;;;2.20;99.90;;;;;;5074839;28;20215;-64
2024/01/19 02:15:01;;;;;;;13.20;12.70;;;2.20;99.90;;;;;;5064108;28;20219;-62
2024/01/19 02:17:27;;;;;;;14.27;13.63;;;2.20;99.90;;;;;;5065382;28;20218;-62
2024/01/19 02:19:54;;;;;;;12.73;12.23;;;2.20;99.90;;;;;;5065124;28;20208;-63
2024/01/19 02:22:21;;;;;;;13.23;12.73;;;2.30;99.90;;;;;;5066419;28;20500;-63
2024/01/19 02:24:49;;;;;;;12.77;12.27;;;2.30;99.90;;;;;;5072673;28;20227;-62
2024/01/19 02:27:17;;;;;;;13.37;12.87;;;2.30;99.90;;;;;;5070120;28;20203;-63
2024/01/19 02:29:49;;;;;;;13.80;13.23;;;2.20;99.90;;;;;;5070797;28;20204;-62
2024/01/19 02:32:16;;;;;;;13.43;12.83;;;2.10;99.90;;;;;;5071006;28;20203;-64
2024/01/19 02:34:45;;;;;;;13.20;12.63;;;2.10;99.90;;;;;;5071154;28;20237;-62
2024/01/19 02:37:12;;;;;;;13.13;12.57;;;2.10;99.90;;;;;;5067945;28;20674;-62
2024/01/19 02:39:39;;;;;;;14.03;13.43;;;2.20;99.90;;;;;;5064666;28;20231;-62
2024/01/19 02:42:08;;;;;;;13.93;13.33;;;2.10;99.90;;;;;;5061783;28;20226;-63
2024/01/19 02:44:34;;;;;;;14.17;13.47;;;2.00;99.90;;;;;;5064424;28;20237;-61
2024/01/19 02:47:01;;;;;;;13.40;12.90;;;2.00;99.90;;;;;;5064888;28;20207;-64
2024/01/19 02:49:28;;;;;;;13.73;13.13;;;2.00;99.90;;;;;;5068518;28;20209;-63
2024/01/19 02:51:54;;;;;;;12.97;12.43;;;2.00;99.90;;;;;;5069979;28;20203;-63
2024/01/19 02:54:21;;;;;;;14.83;14.13;;;2.00;99.90;;;;;;5068969;28;21057;-61
2024/01/19 02:56:48;;;;;;;14.03;13.43;;;1.90;99.90;;;;;;5073970;28;20206;-61
2024/01/19 02:59:16;;;;;;;13.90;13.30;;;1.90;99.90;;;;;;5068231;28;20670;-63
2024/01/19 03:01:43;;;;;;;13.67;13.07;;;1.90;99.90;;;;;;5072733;28;20250;-62
2024/01/19 03:04:09;;;;;;;14.80;14.10;;;1.90;99.90;;;;;;5078386;28;20572;-62
2024/01/19 03:06:36;;;;;;;15.53;14.83;;;1.90;99.90;;;;;;5081734;28;20233;-62
2024/01/19 03:09:03;;;;;;;14.50;13.90;;;1.70;99.90;;;;;;5079344;28;20203;-62
2024/01/19 03:11:30;;;;;;;14.82;14.13;;;1.70;99.90;;;;;;5082991;28;20230;-61
2024/01/19 03:13:57;;;;;;;14.20;13.60;;;1.60;99.90;;;;;;5081001;28;20237;-62
2024/01/19 03:16:25;;;;;;;13.23;12.63;;;1.50;99.90;;;;;;5075480;28;20658;-63
2024/01/19 03:18:54;;;;;;;14.40;13.70;;;1.60;99.90;;;;;;5069923;28;20214;-61
2024/01/19 03:21:21;;;;;;;13.93;13.33;;;1.70;99.90;;;;;;5072043;28;20203;-63
2024/01/19 03:23:48;;;;;;;14.63;14.03;;;1.70;99.90;;;;;;5073766;28;20203;-63
2024/01/19 03:26:14;;;;;;;13.30;12.70;;;1.80;99.90;;;;;;5075630;28;20211;-62
2024/01/19 03:28:41;;;;;;;14.70;14.00;;;1.80;99.90;;;;;;5071424;28;20227;-62
2024/01/19 03:31:07;;;;;;;15.20;14.50;;;1.80;99.90;;;;;;5070633;28;20203;-62
2024/01/19 03:33:35;;;;;;;14.77;14.07;;;1.80;99.90;;;;;;5071165;28;20230;-61
2024/01/19 03:36:02;;;;;;;14.10;13.50;;;1.80;99.90;;;;;;5069566;28;20207;-62
2024/01/19 03:38:30;;;;;;;14.63;13.97;;;1.80;99.90;;;;;;5073324;28;20241;-63
2024/01/19 03:40:57;;;;;;;15.03;14.43;;;1.70;99.90;;;;;;5073984;28;20367;-63
2024/01/19 03:43:25;;;;;;;15.03;14.33;;;1.60;99.90;;;;;;5067768;28;20200;-63
2024/01/19 03:45:51;;;;;;;14.37;13.67;;;1.50;99.90;;;;;;5070421;28;20252;-63
2024/01/19 03:48:19;;;;;;;16.57;15.77;;;1.50;99.90;;;;;;5067835;28;20206;-62
2024/01/19 03:50:47;;;;;;;14.75;14.05;;;1.50;99.90;;;;;;5068603;28;20253;-62
2024/01/19 03:53:13;;;;;;;13.70;13.10;;;1.50;99.90;;;;;;5067416;28;20702;-62
2024/01/19 03:55:40;;;;;;;13.23;12.63;;;1.50;99.90;;;;;;5069217;28;20247;-62
2024/01/19 03:58:07;;;;;;;12.53;12.03;;;1.40;99.90;;;;;;5068318;28;20213;-62
2024/01/19 04:00:33;;;;;;;13.87;13.27;;;1.30;99.90;;;;;;5067210;28;20215;-61
2024/01/19 04:03:00;;;;;;;13.97;13.27;;;1.20;99.90;;;;;;5071191;28;20229;-63
2024/01/19 04:05:28;;;;;;;13.87;13.27;;;1.20;99.90;;;;;;5069745;28;20222;-62
2024/01/19 04:07:56;;;;;;;13.80;13.10;;;1.10;99.90;;;;;;5068049;28;20203;-61
2024/01/19 04:10:23;;;;;;;13.33;12.73;;;1.20;99.90;;;;;;5069040;28;20199;-62
2024/01/19 04:12:51;;;;;;;13.97;13.37;;;1.20;99.90;;;;;;5067040;28;20224;-62
2024/01/19 04:15:18;;;;;;;14.13;13.50;;;1.20;99.90;;;;;;5067888;28;20296;-62
2024/01/19 04:17:45;;;;;;;13.88;13.18;;;1.20;99.90;;;;;;5066110;28;20215;-61
2024/01/19 04:20:12;;;;;;;13.53;12.93;;;1.20;99.90;;;;;;5066690;28;20252;-61
2024/01/19 04:22:39;;;;;;;13.37;12.77;;;1.20;99.90;;;;;;5069534;28;20214;-62
2024/01/19 04:25:08;;;;;;;13.40;12.80;;;1.20;99.90;;;;;;5070588;28;20250;-62
2024/01/19 04:27:35;;;;;;;13.38;12.77;;;1.40;99.90;;;;;;5067143;28;20286;-62
2024/01/19 04:30:01;;;;;;;12.73;12.13;;;1.40;99.90;;;;;;5069223;28;20557;-63
2024/01/19 04:32:28;;;;;;;13.83;13.23;;;1.40;99.90;;;;;;5072385;28;20211;-62
2024/01/19 04:34:55;;;;;;;12.87;12.27;;;1.40;99.90;;;;;;5067562;28;20235;-61
2024/01/19 04:37:21;;;;;;;13.17;12.57;;;1.40;99.90;;;;;;5071400;28;20207;-61
2024/01/19 04:39:48;;;;;;;13.23;12.63;;;1.30;99.90;;;;;;5071904;28;20588;-61
2024/01/19 04:42:16;;;;;;;13.33;12.73;;;1.30;99.90;;;;;;5072290;28;20211;-63
2024/01/19 04:44:43;;;;;;;13.70;13.10;;;1.30;99.90;;;;;;5074877;28;20226;-61
2024/01/19 04:47:10;;;;;;;13.23;12.53;;;1.40;99.90;;;;;;5069624;28;20222;-62
2024/01/19 04:49:36;;;;;;;13.40;12.80;;;1.30;99.90;;;;;;5075301;28;20238;-64
2024/01/19 04:52:03;;;;;;;13.30;12.70;;;1.40;99.90;;;;;;5067187;28;20583;-62
2024/01/19 04:54:30;;;;;;;13.27;12.67;;;1.40;99.90;;;;;;5072323;28;20318;-63
2024/01/19 04:56:57;;;;;;;12.67;12.07;;;1.40;99.90;;;;;;5075963;28;20669;-64
2024/01/19 04:59:25;;;;;;;13.07;12.47;;;1.40;99.90;;;;;;5071755;28;20215;-62
2024/01/19 05:01:51;;;;;;;13.37;12.67;;;1.30;99.90;;;;;;5073127;28;20206;-61
2024/01/19 05:04:18;;;;;;;12.98;12.48;;;1.30;99.90;;;;;;5071495;28;20857;-62
2024/01/19 05:06:45;;;;;;;12.90;12.30;;;1.40;99.90;;;;;;5073595;28;20236;-62
2024/01/19 05:09:12;;;;;;;13.40;12.80;;;1.60;99.90;;;;;;5071910;28;20220;-61
2024/01/19 05:11:38;;;;;;;13.43;12.83;;;1.60;99.90;;;;;;5071584;28;20211;-62
2024/01/19 05:14:06;;;;;;;13.13;12.53;;;1.70;99.90;;;;;;5076497;28;20280;-62
2024/01/19 05:16:34;;;;;;;13.43;12.83;;;1.80;99.90;;;;;;5071457;28;20241;-62
2024/01/19 05:19:01;;;;;;;13.48;12.88;;;1.80;99.90;;;;;;5073581;28;20613;-62
2024/01/19 05:21:28;;;;;;;13.30;12.70;;;1.80;99.90;;;;;;5093970;28;20222;-64
2024/01/19 05:23:55;;;;;;;13.02;12.43;;;1.80;99.90;;;;;;5080791;28;20199;-61
2024/01/19 05:26:21;;;;;;;13.90;13.30;;;1.80;99.90;;;;;;5069998;28;20207;-64
2024/01/19 05:28:48;;;;;;;13.53;12.93;;;1.80;99.90;;;;;;5070681;28;20208;-61
2024/01/19 05:31:15;;;;;;;13.53;12.93;;;1.90;99.90;;;;;;5070755;28;20209;-62
2024/01/19 05:33:43;;;;;;;13.83;13.23;;;1.90;99.90;;;;;;5064249;28;20322;-63
2024/01/19 05:36:09;;;;;;;14.52;13.82;;;1.80;99.90;;;;;;5074177;28;20207;-62
2024/01/19 05:38:36;;;;;;;13.67;13.07;;;1.90;99.90;;;;;;5073916;28;20206;-62
2024/01/19 05:41:03;;;;;;;13.47;12.87;;;1.90;99.90;;;;;;5073098;28;20214;-63
2024/01/19 05:43:30;;;;;;;13.20;12.70;;;1.90;99.90;;;;;;5083579;28;20198;-63
2024/01/19 05:45:57;;;;;;;14.63;13.93;;;1.90;99.90;;;;;;5075427;28;20232;-62
2024/01/19 05:48:25;;;;;;;16.43;15.60;;;1.90;99.90;;;;;;5070778;28;20207;-62
2024/01/19 05:50:53;;;;;;;14.03;13.43;;;1.80;99.90;;;;;;5070687;28;20200;-62
2024/01/19 05:53:19;;;;;;;14.30;13.70;;;1.70;99.90;;;;;;5074540;28;20685;-62
2024/01/19 05:55:46;;;;;;;14.20;13.60;;;1.60;99.90;;;;;;5069460;28;20219;-63
2024/01/19 05:58:13;;;;;;;15.13;14.40;;;1.60;99.90;;;;;;5072433;28;20226;-68
2024/01/19 06:00:40;;;;;;;14.03;13.43;;;1.60;99.90;;;;;;5070211;28;20764;-65
2024/01/19 06:03:06;;;;;;;14.47;13.77;;;1.50;99.90;;;;;;5070869;28;20215;-66
2024/01/19 06:05:33;;;;;;;13.30;12.70;;;1.50;99.90;;;;;;5078517;28;20233;-67
2024/01/19 06:08:01;;;;;;;13.90;13.30;;;1.60;99.90;;;;;;5081907;28;20209;-71
2024/01/19 06:10:28;;;;;;;14.23;13.53;;;1.60;99.90;;;;;;5081712;28;20285;-66
2024/01/19 06:12:55;;;;;;;13.27;12.67;;;1.50;99.90;;;;;;5079000;28;20204;-68
2024/01/19 06:15:21;;;;;;;13.53;12.93;;;1.50;99.90;;;;;;5078124;28;20231;-66
2024/01/19 06:17:48;;;;;;;13.87;13.17;;;1.70;99.90;;;;;;5076096;28;20222;-68
2024/01/19 06:20:15;;;;;;;12.87;12.37;;;1.80;99.90;;;;;;5068590;28;20214;-66
2024/01/19 06:22:43;;;;;;;13.87;13.27;;;1.80;99.90;;;;;;5069772;28;20214;-67
2024/01/19 06:25:12;;;;;;;13.73;13.13;;;1.90;99.90;;;;;;5065662;28;20223;-67
2024/01/19 06:27:39;;;;;;;13.83;13.23;;;2.00;99.90;;;;;;5068341;28;20207;-66
2024/01/19 06:30:07;;;;;;;13.88;13.27;;;2.00;99.90;;;;;;5068278;28;20199;-67
2024/01/19 06:32:34;;;;;;;15.00;14.20;;;1.90;99.90;;;;;;5070589;28;20204;-66
2024/01/19 06:35:01;;;;;;;14.80;14.10;;;1.90;99.90;;;;;;5067226;28;20732;-67
2024/01/19 06:37:27;;;;;;;14.80;14.10;;;1.90;99.90;;;;;;5072995;28;20200;-67
2024/01/19 06:39:55;;;;;;;14.70;14.00;;;1.80;99.90;;;;;;5072247;28;20210;-66
2024/01/19 06:42:24;;;;;;;14.47;13.77;;;1.70;99.90;;;;;;5073823;28;20233;-65
2024/01/19 06:44:51;;;;;;;14.13;13.43;;;1.70;99.90;;;;;;5071064;28;20223;-68
2024/01/19 06:47:19;;;;;;;14.47;13.73;;;1.50;99.90;;;;;;5071578;28;20199;-65
2024/01/19 06:49:47;;;;;;;13.87;13.27;;;1.40;99.90;;;;;;5068820;28;20286;-66
2024/01/19 06:52:15;;;;;;;13.83;13.03;;;1.30;99.90;;;;;;5067830;28;20665;-66
2024/01/19 06:54:41;;;;;;;14.07;13.37;;;1.30;99.90;;;;;;5066506;28;20304;-66
2024/01/19 06:57:08;;;;;;;14.83;14.13;;;1.30;99.90;;;;;;5069403;28;20214;-66
2024/01/19 06:59:36;;;;;;;13.47;12.87;;;1.30;99.90;;;;;;5070468;28;20211;-66
2024/01/19 07:02:04;;;;;;;14.23;13.53;;;1.20;99.90;;;;;;5070116;28;20694;-68
2024/01/19 07:04:31;;;;;;;13.50;12.90;;;1.20;99.90;;;;;;5075896;28;20240;-67
2024/01/19 07:06:58;;;;;;;14.00;13.30;;;1.10;99.90;;;;;;5073522;28;20215;-66
2024/01/19 07:09:26;;;;;;;14.68;13.88;;;1.10;99.90;;;;;;5068383;28;20199;-66
2024/01/19 07:11:53;;;;;;;14.70;14.00;;;1.20;99.90;;;;;;5067942;28;20215;-67
2024/01/19 07:14:20;;;;;;;13.47;12.87;;;1.20;99.90;;;;;;5072228;28;20235;-67
2024/01/19 07:16:48;;;;;;;14.20;13.50;;;1.20;99.90;;;;;;5071340;28;20211;-67
2024/01/19 07:19:14;;;;;;;14.00;13.30;;;1.20;99.90;;;;;;5062187;28;20203;-66
2024/01/19 07:21:41;;;;;;;14.50;13.80;;;1.20;99.90;;;;;;5071633;28;20218;-66
2024/01/19 07:24:09;;;;;;;13.97;13.27;;;1.20;99.90;;;;;;5070487;28;20227;-65
2024/01/19 07:26:36;;;;;;;13.77;13.17;;;1.10;99.90;;;;;;5068991;28;20199;-67
2024/01/19 07:29:06;;;;;;;13.27;12.67;;;1.10;99.90;;;;;;5069301;28;20216;-66
2024/01/19 07:31:33;;;;;;;13.03;12.43;;;1.20;99.90;;;;;;5065643;28;20654;-67
2024/01/19 07:34:01;;;;;;;13.57;12.97;;;1.20;99.90;;;;;;5068727;28;20242;-66
2024/01/19 07:36:28;;;;;;;14.60;13.80;;;1.20;99.90;;;;;;5066674;28;20577;-67
2024/01/19 07:38:55;;;;;;;13.57;12.97;;;1.10;99.90;;;;;;5068659;28;20252;-66
2024/01/19 07:41:22;;;;;;;14.03;13.40;;;1.10;99.90;;;;;;5069287;28;20425;-67
2024/01/19 07:43:49;;;;;;;13.63;12.90;;;1.10;99.90;;;;;;5063645;28;20204;-66
2024/01/19 07:46:15;;;;;;;13.67;12.97;;;1.20;99.90;;;;;;5068753;28;20211;-66
2024/01/19 07:48:43;;;;;;;13.60;12.93;;;1.20;99.90;;;;;;5073113;28;20204;-66
2024/01/19 07:51:11;;;;;;;13.50;12.90;;;1.20;99.90;;;;;;5070721;28;20230;-67
2024/01/19 07:53:37;;;;;;;13.13;12.53;;;1.30;99.90;;;;;;5065241;28;20575;-67
2024/01/19 07:56:05;;;;;;;13.70;13.00;;;1.30;99.90;;;;;;5068720;28;20211;-66
2024/01/19 07:58:31;;;;;;;13.10;12.50;;;1.20;99.90;;;;;;5066992;28;20646;-67
2024/01/19 08:00:58;;;;;;;12.90;12.30;;;1.20;99.90;;;;;;5074018;28;20218;-68
2024/01/19 08:03:26;;;;;;;13.02;12.43;;;1.20;99.90;;;;;;5070955;28;20207;-67
2024/01/19 08:05:52;;;;;;;13.57;12.97;;;1.40;99.90;;;;;;5071046;28;20652;-67
2024/01/19 08:08:20;;;;;;;14.27;13.57;;;1.40;99.90;;;;;;5069216;28;20207;-68
2024/01/19 08:10:47;;;;;;;13.80;13.20;;;1.50;99.90;;;;;;5069937;28;20206;-64
2024/01/19 08:13:14;;;;;;;13.50;12.90;;;1.50;99.90;;;;;;5072412;28;20211;-66
2024/01/19 08:15:41;;;;;;;14.10;13.50;;;1.50;99.90;;;;;;5072119;28;20230;-66
2024/01/19 08:18:07;;;;;;;12.97;12.37;;;1.50;99.90;;;;;;5072773;28;20222;-66
2024/01/19 08:20:34;;;;;;;13.60;13.00;;;1.60;99.90;;;;;;5075060;28;20209;-68
2024/01/19 08:23:02;;;;;;;13.87;13.27;;;1.70;99.90;;;;;;5075034;28;20202;-67
2024/01/19 08:25:30;;;;;;;13.67;13.07;;;1.70;99.90;;;;;;5079762;28;20223;-67
2024/01/19 08:27:57;;;;;;;13.03;12.50;;;1.70;99.90;;;;;;5087035;28;20212;-67
2024/01/19 08:30:23;;;;;;;13.43;12.73;;;1.80;99.90;;;;;;5086598;28;20203;-67
2024/01/19 08:32:50;;;;;;;14.20;13.50;;;1.90;99.90;;;;;;5084455;28;20239;-68
2024/01/19 08:35:17;;;;;;;14.30;13.60;;;2.10;99.90;;;;;;5088749;28;20226;-68
2024/01/19 08:37:43;;;;;;;13.70;13.10;;;2.20;99.90;;;;;;5069300;28;20206;-68
2024/01/19 08:40:12;;;;;;;14.83;14.13;;;2.30;99.90;;;;;;5067773;28;20212;-67
2024/01/19 08:42:40;;;;;;;14.47;13.87;;;2.30;99.90;;;;;;5072460;28;20203;-65
2024/01/19 08:45:08;;;;;;;14.03;13.43;;;2.30;99.90;;;;;;5067961;28;20222;-66
2024/01/19 08:47:35;;;;;;;14.43;13.82;;;2.30;99.90;;;;;;5074194;28;20211;-66
2024/01/19 08:50:02;;;;;;;14.37;13.77;;;2.30;99.90;;;;;;5082109;28;20214;-66
2024/01/19 08:52:30;;;;;;;14.33;13.73;;;2.30;99.90;;;;;;5081225;28;20309;-67
2024/01/19 08:54:56;;;;;;;14.70;14.00;;;2.40;99.90;;;;;;5081631;28;20309;-67
2024/01/19 08:57:23;;;;;;;14.53;13.83;;;2.40;99.90;;;;;;5080843;28;20214;-66
2024/01/19 08:59:52;;;;;;;14.20;13.60;;;2.50;99.90;;;;;;5077528;28;20252;-65
2024/01/19 09:02:19;;;;;;;14.73;14.03;;;2.40;99.90;;;;;;5077809;28;20253;-65
2024/01/19 09:04:46;;;;;;;14.30;13.70;;;2.50;99.90;;;;;;5079927;28;20313;-68
2024/01/19 09:07:12;;;;;;;14.20;13.50;;;2.50;99.90;;;;;;5075953;28;20210;-66
2024/01/19 09:09:40;;;;;;;14.00;13.40;;;2.60;99.90;;;;;;5075916;28;20207;-66
2024/01/19 09:12:07;;;;;;;13.83;13.23;;;2.50;99.90;;;;;;5078861;28;20195;-67
2024/01/19 09:14:35;;;;;;;13.93;13.33;;;2.60;99.90;;;;;;5075379;28;20239;-66
2024/01/19 09:17:03;;;;;;;14.00;13.30;;;2.60;99.90;;;;;;5075291;28;20739;-65
2024/01/19 09:19:30;;;;;;;14.33;13.73;;;2.60;99.90;;;;;;5070446;28;20203;-66
2024/01/19 09:21:57;;;;;;;13.83;13.23;;;2.70;99.90;;;;;;5074991;28;20225;-65
2024/01/19 09:24:24;;;;;;;13.23;12.63;;;2.80;99.90;;;;;;5076859;28;20243;-66
2024/01/19 09:26:51;;;;;;;13.73;13.13;;;2.70;99.90;;;;;;5077725;28;20276;-66
2024/01/19 09:29:17;;;;;;;14.53;13.90;;;2.70;99.90;;;;;;5077268;28;20203;-65
2024/01/19 09:31:45;;;;;;;13.93;13.33;;;2.70;99.90;;;;;;5076163;28;20207;-66
2024/01/19 09:34:15;;;;;;;14.40;13.70;;;2.80;99.90;;;;;;5073408;28;20215;-67
2024/01/19 09:36:42;;;;;;;13.27;12.67;;;2.80;99.90;;;;;;5077810;28;20207;-65
2024/01/19 09:39:09;;;;;;;13.73;13.13;;;2.70;99.90;;;;;;5076697;28;20202;-66
2024/01/19 09:41:39;;;;;;;13.40;12.90;;;2.80;99.90;;;;;;5075691;28;20199;-66
2024/01/19 09:44:09;;;;;;;14.40;13.80;;;2.80;99.90;;;;;;5076011;28;20220;-65
2024/01/19 09:46:49;;;;;;;14.07;13.47;;;2.80;99.90;;;;;;5077729;28;20668;-65
2024/01/19 09:49:25;;;;;;;14.10;13.50;;;2.70;99.90;;;;;;5078649;28;20199;-66
2024/01/19 09:51:56;;;;;;;14.00;13.40;;;2.70;99.90;;;;;;5076166;28;20194;-66
2024/01/19 09:54:29;;;;;;;14.47;13.87;;;2.80;99.90;;;;;;5076879;28;20223;-67
2024/01/19 09:56:55;;;;;;;14.83;14.13;;;2.90;99.90;;;;;;5075028;28;20195;-66
2024/01/19 09:59:23;;;;;;;13.60;13.00;;;2.90;99.90;;;;;;5078369;28;20670;-66
2024/01/19 10:01:53;;;;;;;14.53;13.93;;;3.00;99.90;;;;;;5072906;28;20203;-66
2024/01/19 10:04:22;;;;;;;14.90;14.30;;;3.00;99.90;;;;;;5077115;28;20219;-66
2024/01/19 10:06:49;;;;;;;14.80;14.10;;;3.10;99.90;;;;;;5072691;28;20238;-66
2024/01/19 10:09:17;;;;;;;14.37;13.70;;;3.20;99.90;;;;;;5073872;28;20199;-66
2024/01/19 10:11:46;;;;;;;15.07;14.47;;;3.20;99.90;;;;;;5081776;28;20206;-67
2024/01/19 10:14:13;;;;;;;14.20;13.60;;;3.20;99.90;;;;;;5079584;28;20230;-67
2024/01/19 10:16:40;;;;;;;14.53;13.93;;;3.20;99.90;;;;;;5072510;28;20224;-67
2024/01/19 10:19:09;;;;;;;14.57;13.97;;;3.10;99.90;;;;;;5070832;28;20199;-69
2024/01/19 10:21:37;;;;;;;14.43;13.83;;;3.20;99.90;;;;;;5073641;28;20199;-66
2024/01/19 10:24:11;;;;;;;14.77;14.17;;;3.20;99.90;;;;;;5081392;28;20233;-66
2024/01/19 10:26:38;;;;;;;14.30;13.70;;;3.30;99.90;;;;;;5080209;28;20201;-67
2024/01/19 10:29:12;;;;;;;15.03;14.43;;;3.30;99.90;;;;;;5080569;28;20196;-65
2024/01/19 10:31:39;;;;;;;16.00;15.30;;;3.20;99.90;;;;;;5084191;28;20209;-66
2024/01/19 10:34:06;;;;;;;14.83;14.23;;;3.00;99.90;;;;;;5086908;28;20223;-66
2024/01/19 10:36:40;;;;;;;15.70;15.00;;;2.70;99.90;;;;;;5077714;28;20701;-67
2024/01/19 10:39:17;;;;;;;15.57;14.97;;;2.70;99.90;;;;;;5074061;28;20207;-67
2024/01/19 10:41:44;;;;;;;14.20;13.60;;;2.60;99.90;;;;;;5069658;28;20633;-68
2024/01/19 10:44:12;;;;;;;15.47;14.77;;;2.70;99.90;;;;;;5074190;28;20235;-68
2024/01/19 10:46:39;;;;;;;14.67;14.07;;;2.90;99.90;;;;;;5077165;28;20191;-67
2024/01/19 10:49:06;;;;;;;15.03;14.43;;;2.90;99.90;;;;;;5078047;28;20575;-66
2024/01/19 10:51:35;;;;;;;14.97;14.30;;;3.00;99.90;;;;;;5075944;28;20214;-65
2024/01/19 10:54:04;;;;;;;15.33;14.73;;;3.10;99.90;;;;;;5074980;28;20539;-66
2024/01/19 10:56:31;;;;;;;15.40;14.70;;;3.20;99.90;;;;;;5074292;28;20231;-66
2024/01/19 10:59:10;;;;;;;15.37;14.63;;;3.30;99.90;;;;;;5071918;28;20401;-65
2024/01/19 11:01:37;;;;;;;16.33;15.63;;;3.20;99.90;;;;;;5066722;28;20293;-66
2024/01/19 11:04:06;;;;;;;15.73;15.03;;;2.90;99.90;;;;;;5065244;28;20593;-66
2024/01/19 11:06:34;;;;;;;14.90;14.30;;;2.70;99.90;;;;;;5067439;28;20195;-67
2024/01/19 11:09:01;;;;;;;16.53;15.73;;;2.50;99.90;;;;;;5072462;28;20211;-68
2024/01/19 11:11:31;;;;;;;15.43;14.73;;;2.40;99.90;;;;;;5062950;28;20654;-68
2024/01/19 11:14:02;;;;;;;15.80;15.10;;;2.40;99.90;;;;;;5069167;28;20211;-66
2024/01/19 11:16:33;;;;;;;15.50;14.80;;;2.50;99.90;;;;;;5066169;28;20322;-66
2024/01/19 11:19:02;;;;;;;16.27;15.57;;;2.60;99.90;;;;;;5068623;28;20375;-66
2024/01/19 11:21:30;;;;;;;17.67;16.87;;;2.60;99.90;;;;;;5070701;28;20517;-66
2024/01/19 11:23:57;;;;;;;16.20;15.50;;;2.90;99.90;;;;;;5066542;28;20202;-65
2024/01/19 11:26:34;;;;;;;16.43;15.73;;;3.20;99.90;;;;;;5070445;28;20279;-67
2024/01/19 11:29:04;;;;;;;16.40;15.60;;;3.50;99.90;;;;;;5071889;28;20671;-66
2024/01/19 11:31:33;;;;;;;14.37;13.73;;;3.50;99.90;;;;;;5072959;28;20200;-66
2024/01/19 11:34:00;;;;;;;14.50;13.87;;;3.40;99.90;;;;;;5063774;28;20234;-67
2024/01/19 11:36:47;;;;;;;14.53;13.93;;;3.50;99.90;;;;;;5068803;28;20227;-67
2024/01/19 11:39:40;;;;;;;14.10;13.50;;;3.40;99.90;;;;;;5076293;28;20210;-67
2024/01/19 11:42:09;;;;;;;14.33;13.73;;;3.40;99.90;;;;;;5073296;28;20264;-67
2024/01/19 11:44:44;;;;;;;15.13;14.53;;;3.30;99.90;;;;;;5067953;28;20225;-65
2024/01/19 11:47:41;;;;;;;15.13;14.50;;;3.30;99.90;;;;;;5073683;28;20279;-65
2024/01/19 11:50:09;;;;;;;15.43;14.73;;;3.30;99.90;;;;;;5066444;28;20253;-68
2024/01/19 11:52:44;;;;;;;14.70;14.03;;;3.30;99.90;;;;;;5061010;28;20618;-65
2024/01/19 11:55:42;;;;;;;15.23;14.50;;;3.30;99.90;;;;;;5062418;28;20225;-67
2024/01/19 11:58:31;;;;;;;15.17;14.37;;;3.40;99.90;;;;;;5059221;28;20207;-66
2024/01/19 12:00:58;;;;;;;15.50;14.80;;;3.40;99.90;;;;;;5063494;28;20215;-67
2024/01/19 12:03:26;;;;;;;14.60;14.00;;;3.50;99.90;;;;;;5058318;28;20238;-67
2024/01/19 12:05:56;;;;;;;14.73;14.13;;;3.40;99.90;;;;;;5067376;28;20306;-66
2024/01/19 12:08:22;;;;;;;16.43;15.63;;;3.40;99.90;;;;;;5062298;28;20196;-67
2024/01/19 12:11:01;;;;;;;15.63;14.93;;;3.40;99.90;;;;;;5067720;28;20575;-68
2024/01/19 12:13:31;;;;;;;15.97;15.27;;;3.40;99.90;;;;;;5058345;28;20199;-66
2024/01/19 12:15:57;;;;;;;17.03;16.23;;;3.30;99.90;;;;;;5060048;28;20242;-66
2024/01/19 12:18:25;;;;;;;16.63;15.80;;;3.10;99.90;;;;;;5081004;28;20206;-65
2024/01/19 12:20:54;;;;;;;16.03;15.33;;;3.00;99.90;;;;;;5069899;28;20196;-65
2024/01/19 12:23:21;;;;;;;17.97;17.17;;;2.90;99.90;;;;;;5076495;28;20275;-66
2024/01/19 12:25:48;;;;;;;17.17;16.37;;;2.80;99.90;;;;;;5072549;28;20294;-69
2024/01/19 12:28:16;;;;;;;17.40;16.67;;;2.70;99.90;;;;;;5072457;28;20207;-66
2024/01/19 12:30:44;;;;;;;17.47;16.73;;;2.70;99.90;;;;;;5065993;28;20206;-66
2024/01/19 12:33:16;;;;;;;17.50;16.70;;;2.70;99.90;;;;;;5069534;28;20207;-66
2024/01/19 12:35:45;;;;;;;16.67;15.97;;;2.80;99.90;;;;;;5070486;28;20238;-66
2024/01/19 12:38:12;;;;;;;16.67;15.97;;;2.80;99.90;;;;;;5069602;28;20209;-67